sensor_id;sensor_type;location;lat;lon;timestamp;pressure;altitude;pressure_sealevel;temperature;humidity
52719;BME280;38616;42.140;24.760;2023-11-21T00:00:51;99391.06;;;11.60;nan
52719;BME280;38616;42.140;24.760;2023-11-21T00:03:16;99400.97;;;11.50;nan
52719;BME280;38616;42.140;24.760;2023-11-21T00:05:42;99413.28;;;11.18;nan
52719;BME280;38616;42.140;24.760;2023-11-21T00:08:08;99410.88;;;11.17;nan
52719;BME280;38616;42.140;24.760;2023-11-21T00:10:34;99414.06;;;11.00;nan
52719;BME280;38616;42.140;24.760;2023-11-21T00:13:00;99398.59;;;10.95;nan
52719;BME280;38616;42.140;24.760;2023-11-21T00:15:28;99403.63;;;11.07;nan
52719;BME280;38616;42.140;24.760;2023-11-21T00:17:54;99406.69;;;11.24;nan
52719;BME280;38616;42.140;24.760;2023-11-21T00:20:20;99408.50;;;11.34;nan
52719;BME280;38616;42.140;24.760;2023-11-21T00:22:45;99413.16;;;11.53;nan
52719;BME280;38616;42.140;24.760;2023-11-21T00:25:12;99400.47;;;11.67;nan
52719;BME280;38616;42.140;24.760;2023-11-21T00:27:40;99395.41;;;11.80;nan
52719;BME280;38616;42.140;24.760;2023-11-21T00:30:07;99407.84;;;11.67;nan
52719;BME280;38616;42.140;24.760;2023-11-21T00:32:35;99410.88;;;11.60;nan
52719;BME280;38616;42.140;24.760;2023-11-21T00:35:01;99397.41;;;11.50;nan
52719;BME280;38616;42.140;24.760;2023-11-21T00:37:26;99397.38;;;11.31;nan
52719;BME280;38616;42.140;24.760;2023-11-21T00:39:53;99391.47;;;10.99;nan
52719;BME280;38616;42.140;24.760;2023-11-21T00:42:18;99396.59;;;11.30;nan
52719;BME280;38616;42.140;24.760;2023-11-21T00:44:44;99393.50;;;11.37;nan
52719;BME280;38616;42.140;24.760;2023-11-21T00:47:10;99403.81;;;11.16;nan
52719;BME280;38616;42.140;24.760;2023-11-21T00:49:35;99390.75;;;11.18;nan
52719;BME280;38616;42.140;24.760;2023-11-21T00:52:00;99399.41;;;11.20;nan
52719;BME280;38616;42.140;24.760;2023-11-21T00:54:28;99398.25;;;11.26;nan
52719;BME280;38616;42.140;24.760;2023-11-21T00:56:53;99409.19;;;10.97;nan
52719;BME280;38616;42.140;24.760;2023-11-21T00:59:18;99402.28;;;10.80;nan
52719;BME280;38616;42.140;24.760;2023-11-21T01:01:44;99403.75;;;10.67;nan
52719;BME280;38616;42.140;24.760;2023-11-21T01:04:09;99403.75;;;10.67;nan
52719;BME280;38616;42.140;24.760;2023-11-21T01:06:35;99400.31;;;10.86;nan
52719;BME280;38616;42.140;24.760;2023-11-21T01:09:01;99396.69;;;10.96;nan
52719;BME280;38616;42.140;24.760;2023-11-21T01:11:27;99399.59;;;11.04;nan
52719;BME280;38616;42.140;24.760;2023-11-21T01:13:53;99403.97;;;10.41;nan
52719;BME280;38616;42.140;24.760;2023-11-21T01:16:18;99406.19;;;10.69;nan
52719;BME280;38616;42.140;24.760;2023-11-21T01:18:46;99402.13;;;10.66;nan
52719;BME280;38616;42.140;24.760;2023-11-21T01:21:11;99410.84;;;10.63;nan
52719;BME280;38616;42.140;24.760;2023-11-21T01:23:37;99406.75;;;10.66;nan
52719;BME280;38616;42.140;24.760;2023-11-21T01:26:03;99404.47;;;10.48;nan
52719;BME280;38616;42.140;24.760;2023-11-21T01:28:29;99400.13;;;10.47;nan
52719;BME280;38616;42.140;24.760;2023-11-21T01:30:56;99398.34;;;10.62;nan
52719;BME280;38616;42.140;24.760;2023-11-21T01:33:22;99406.19;;;10.69;nan
52719;BME280;38616;42.140;24.760;2023-11-21T01:35:50;99402.66;;;10.68;nan
52719;BME280;38616;42.140;24.760;2023-11-21T01:38:15;99401.19;;;10.52;nan
52719;BME280;38616;42.140;24.760;2023-11-21T01:40:42;99393.63;;;10.43;nan
52719;BME280;38616;42.140;24.760;2023-11-21T01:43:08;99402.59;;;10.39;nan
52719;BME280;38616;42.140;24.760;2023-11-21T01:45:33;99401.94;;;10.57;nan
52719;BME280;38616;42.140;24.760;2023-11-21T01:48:00;99398.16;;;10.53;nan
52719;BME280;38616;42.140;24.760;2023-11-21T01:50:26;99386.78;;;10.51;nan
52719;BME280;38616;42.140;24.760;2023-11-21T01:52:52;99396.97;;;10.30;nan
52719;BME280;38616;42.140;24.760;2023-11-21T01:55:19;99391.50;;;10.40;nan
52719;BME280;38616;42.140;24.760;2023-11-21T01:57:45;99398.13;;;10.18;nan
52719;BME280;38616;42.140;24.760;2023-11-21T02:00:12;99399.25;;;10.12;nan
52719;BME280;38616;42.140;24.760;2023-11-21T02:02:45;99400.97;;;9.98;nan
52719;BME280;38616;42.140;24.760;2023-11-21T02:05:11;99404.81;;;9.91;nan
52719;BME280;38616;42.140;24.760;2023-11-21T02:07:41;99391.69;;;9.64;nan
52719;BME280;38616;42.140;24.760;2023-11-21T02:10:08;99389.38;;;9.37;nan
52719;BME280;38616;42.140;24.760;2023-11-21T02:12:34;99385.34;;;9.24;nan
52719;BME280;38616;42.140;24.760;2023-11-21T02:15:05;99384.03;;;9.06;nan
52719;BME280;38616;42.140;24.760;2023-11-21T02:17:35;99389.44;;;9.16;nan
52719;BME280;38616;42.140;24.760;2023-11-21T02:20:01;99392.63;;;9.34;nan
52719;BME280;38616;42.140;24.760;2023-11-21T02:22:31;99398.38;;;9.22;nan
52719;BME280;38616;42.140;24.760;2023-11-21T02:25:01;99392.25;;;9.56;nan
52719;BME280;38616;42.140;24.760;2023-11-21T02:27:27;99400.09;;;9.63;nan
52719;BME280;38616;42.140;24.760;2023-11-21T02:29:53;99399.69;;;9.29;nan
52719;BME280;38616;42.140;24.760;2023-11-21T02:32:19;99400.75;;;9.34;nan
52719;BME280;38616;42.140;24.760;2023-11-21T02:34:48;99408.06;;;9.33;nan
52719;BME280;38616;42.140;24.760;2023-11-21T02:37:13;99400.16;;;9.52;nan
52719;BME280;38616;42.140;24.760;2023-11-21T02:39:39;99405.16;;;9.80;nan
52719;BME280;38616;42.140;24.760;2023-11-21T02:42:04;99394.56;;;9.78;nan
52719;BME280;38616;42.140;24.760;2023-11-21T02:44:30;99388.47;;;9.57;nan
52719;BME280;38616;42.140;24.760;2023-11-21T02:46:56;99399.56;;;9.60;nan
52719;BME280;38616;42.140;24.760;2023-11-21T02:49:23;99387.38;;;9.53;nan
52719;BME280;38616;42.140;24.760;2023-11-21T02:51:48;99398.28;;;9.42;nan
52719;BME280;38616;42.140;24.760;2023-11-21T02:54:14;99383.91;;;9.47;nan
52719;BME280;38616;42.140;24.760;2023-11-21T02:56:39;99401.78;;;9.48;nan
52719;BME280;38616;42.140;24.760;2023-11-21T02:59:05;99400.97;;;9.48;nan
52719;BME280;38616;42.140;24.760;2023-11-21T03:01:30;99405.13;;;9.19;nan
52719;BME280;38616;42.140;24.760;2023-11-21T03:03:56;99402.06;;;9.41;nan
52719;BME280;38616;42.140;24.760;2023-11-21T03:06:22;99410.78;;;9.28;nan
52719;BME280;38616;42.140;24.760;2023-11-21T03:08:48;99403.00;;;9.06;nan
52719;BME280;38616;42.140;24.760;2023-11-21T03:11:14;99412.53;;;8.87;nan
52719;BME280;38616;42.140;24.760;2023-11-21T03:13:44;99416.53;;;9.21;nan
52719;BME280;38616;42.140;24.760;2023-11-21T03:16:11;99413.84;;;9.00;nan
52719;BME280;38616;42.140;24.760;2023-11-21T03:18:38;99410.59;;;8.98;nan
52719;BME280;38616;42.140;24.760;2023-11-21T03:21:07;99402.97;;;9.16;nan
52719;BME280;38616;42.140;24.760;2023-11-21T03:23:36;99404.59;;;9.17;nan
52719;BME280;38616;42.140;24.760;2023-11-21T03:26:05;99404.88;;;9.21;nan
52719;BME280;38616;42.140;24.760;2023-11-21T03:28:33;99398.16;;;8.87;nan
52719;BME280;38616;42.140;24.760;2023-11-21T03:30:59;99407.41;;;8.81;nan
52719;BME280;38616;42.140;24.760;2023-11-21T03:33:24;99403.34;;;8.78;nan
52719;BME280;38616;42.140;24.760;2023-11-21T03:35:50;99407.91;;;8.93;nan
52719;BME280;38616;42.140;24.760;2023-11-21T03:38:15;99415.47;;;9.01;nan
52719;BME280;38616;42.140;24.760;2023-11-21T03:40:41;99404.63;;;9.01;nan
52719;BME280;38616;42.140;24.760;2023-11-21T03:43:07;99404.91;;;9.05;nan
52719;BME280;38616;42.140;24.760;2023-11-21T03:45:33;99408.72;;;8.99;nan
52719;BME280;38616;42.140;24.760;2023-11-21T03:47:59;99408.97;;;9.08;nan
52719;BME280;38616;42.140;24.760;2023-11-21T03:50:28;99408.44;;;8.95;nan
52719;BME280;38616;42.140;24.760;2023-11-21T03:52:54;99411.38;;;9.20;nan
52719;BME280;38616;42.140;24.760;2023-11-21T03:55:19;99406.56;;;8.96;nan
52719;BME280;38616;42.140;24.760;2023-11-21T03:57:45;99407.91;;;8.93;nan
52719;BME280;38616;42.140;24.760;2023-11-21T04:00:10;99412.25;;;8.89;nan
52719;BME280;38616;42.140;24.760;2023-11-21T04:02:36;99422.25;;;9.04;nan
52719;BME280;38616;42.140;24.760;2023-11-21T04:05:01;99429.56;;;9.04;nan
52719;BME280;38616;42.140;24.760;2023-11-21T04:07:28;99429.56;;;9.04;nan
52719;BME280;38616;42.140;24.760;2023-11-21T04:09:53;99420.09;;;9.01;nan
52719;BME280;38616;42.140;24.760;2023-11-21T04:12:19;99423.38;;;8.82;nan
52719;BME280;38616;42.140;24.760;2023-11-21T04:14:44;99417.66;;;8.84;nan
52719;BME280;38616;42.140;24.760;2023-11-21T04:17:10;99426.84;;;9.04;nan
52719;BME280;38616;42.140;24.760;2023-11-21T04:19:35;99430.09;;;9.00;nan
52719;BME280;38616;42.140;24.760;2023-11-21T04:22:01;99436.00;;;9.28;nan
52719;BME280;38616;42.140;24.760;2023-11-21T04:24:29;99417.94;;;9.03;nan
52719;BME280;38616;42.140;24.760;2023-11-21T04:26:55;99427.16;;;8.76;nan
52719;BME280;38616;42.140;24.760;2023-11-21T04:29:20;99439.34;;;8.84;nan
52719;BME280;38616;42.140;24.760;2023-11-21T04:31:46;99448.53;;;8.88;nan
52719;BME280;38616;42.140;24.760;2023-11-21T04:34:14;99441.78;;;8.75;nan
52719;BME280;38616;42.140;24.760;2023-11-21T04:36:39;99449.38;;;8.68;nan
52719;BME280;38616;42.140;24.760;2023-11-21T04:39:05;99443.97;;;8.89;nan
52719;BME280;38616;42.140;24.760;2023-11-21T04:41:32;99437.22;;;8.81;nan
52719;BME280;38616;42.140;24.760;2023-11-21T04:43:57;99440.16;;;8.74;nan
52719;BME280;38616;42.140;24.760;2023-11-21T04:46:24;99443.13;;;8.88;nan
52719;BME280;38616;42.140;24.760;2023-11-21T04:48:51;99441.50;;;8.92;nan
52719;BME280;38616;42.140;24.760;2023-11-21T04:51:19;99439.09;;;8.75;nan
52719;BME280;38616;42.140;24.760;2023-11-21T04:53:45;99442.63;;;8.60;nan
52719;BME280;38616;42.140;24.760;2023-11-21T04:56:10;99452.88;;;8.84;nan
52719;BME280;38616;42.140;24.760;2023-11-21T04:58:36;99444.75;;;8.89;nan
52719;BME280;38616;42.140;24.760;2023-11-21T05:01:01;99447.22;;;8.91;nan
52719;BME280;38616;42.140;24.760;2023-11-21T05:03:27;99438.53;;;8.94;nan
52719;BME280;38616;42.140;24.760;2023-11-21T05:05:55;99416.84;;;8.99;nan
52719;BME280;38616;42.140;24.760;2023-11-21T05:08:21;99409.50;;;9.10;nan
52719;BME280;38616;42.140;24.760;2023-11-21T05:10:47;99423.25;;;9.34;nan
52719;BME280;38616;42.140;24.760;2023-11-21T05:13:14;99438.25;;;8.95;nan
52719;BME280;38616;42.140;24.760;2023-11-21T05:15:40;99438.53;;;8.68;nan
52719;BME280;38616;42.140;24.760;2023-11-21T05:18:06;99447.75;;;8.67;nan
52719;BME280;38616;42.140;24.760;2023-11-21T05:20:31;99448.84;;;8.71;nan
52719;BME280;38616;42.140;24.760;2023-11-21T05:22:58;99447.22;;;8.75;nan
52719;BME280;38616;42.140;24.760;2023-11-21T05:25:24;99445.84;;;8.93;nan
52719;BME280;38616;42.140;24.760;2023-11-21T05:27:49;99454.25;;;8.92;nan
52719;BME280;38616;42.140;24.760;2023-11-21T05:30:15;99452.59;;;9.16;nan
52719;BME280;38616;42.140;24.760;2023-11-21T05:32:41;99440.13;;;9.21;nan
52719;BME280;38616;42.140;24.760;2023-11-21T05:35:11;99436.59;;;9.10;nan
52719;BME280;38616;42.140;24.760;2023-11-21T05:37:41;99452.88;;;8.89;nan
52719;BME280;38616;42.140;24.760;2023-11-21T05:40:07;99455.34;;;8.96;nan
52719;BME280;38616;42.140;24.760;2023-11-21T05:42:34;99459.13;;;8.95;nan
52719;BME280;38616;42.140;24.760;2023-11-21T05:44:59;99452.38;;;8.77;nan
52719;BME280;38616;42.140;24.760;2023-11-21T05:47:42;99459.94;;;8.49;nan
52719;BME280;38616;42.140;24.760;2023-11-21T05:50:12;99463.41;;;8.28;nan
52719;BME280;38616;42.140;24.760;2023-11-21T05:52:40;99452.88;;;8.42;nan
52719;BME280;38616;42.140;24.760;2023-11-21T05:55:06;99453.72;;;8.58;nan
52719;BME280;38616;42.140;24.760;2023-11-21T05:57:36;99457.19;;;8.28;nan
52719;BME280;38616;42.140;24.760;2023-11-21T06:00:07;99445.88;;;8.62;nan
52719;BME280;38616;42.140;24.760;2023-11-21T06:02:43;99446.91;;;8.97;nan
52719;BME280;38616;42.140;24.760;2023-11-21T06:05:09;99454.78;;;8.89;nan
52719;BME280;38616;42.140;24.760;2023-11-21T06:07:35;99455.88;;;8.82;nan
52719;BME280;38616;42.140;24.760;2023-11-21T06:10:04;99463.19;;;8.87;nan
52719;BME280;38616;42.140;24.760;2023-11-21T06:12:39;99463.72;;;8.94;nan
52719;BME280;38616;42.140;24.760;2023-11-21T06:15:08;99460.41;;;9.23;nan
52719;BME280;38616;42.140;24.760;2023-11-21T06:17:35;99451.22;;;9.24;nan
52719;BME280;38616;42.140;24.760;2023-11-21T06:20:05;99449.91;;;9.01;nan
52719;BME280;38616;42.140;24.760;2023-11-21T06:22:41;99467.78;;;9.02;nan
52719;BME280;38616;42.140;24.760;2023-11-21T06:25:08;99468.56;;;9.08;nan
52719;BME280;38616;42.140;24.760;2023-11-21T06:27:38;99459.88;;;9.26;nan
52719;BME280;38616;42.140;24.760;2023-11-21T06:30:06;99458.25;;;9.30;nan
52719;BME280;38616;42.140;24.760;2023-11-21T06:32:31;99463.44;;;9.16;nan
52719;BME280;38616;42.140;24.760;2023-11-21T06:34:57;99464.78;;;9.09;nan
52719;BME280;38616;42.140;24.760;2023-11-21T06:37:26;99450.06;;;9.51;nan
52719;BME280;38616;42.140;24.760;2023-11-21T06:39:52;99458.75;;;9.38;nan
52719;BME280;38616;42.140;24.760;2023-11-21T06:42:18;99452.81;;;9.30;nan
52719;BME280;38616;42.140;24.760;2023-11-21T06:44:47;99452.06;;;9.14;nan
52719;BME280;38616;42.140;24.760;2023-11-21T06:47:13;99463.47;;;8.70;nan
52719;BME280;38616;42.140;24.760;2023-11-21T06:49:39;99455.28;;;8.44;nan
52719;BME280;38616;42.140;24.760;2023-11-21T06:52:04;99453.44;;;8.86;nan
52719;BME280;38616;42.140;24.760;2023-11-21T06:54:34;99448.50;;;9.19;nan
52719;BME280;38616;42.140;24.760;2023-11-21T06:57:02;99444.72;;;9.10;nan
52719;BME280;38616;42.140;24.760;2023-11-21T06:59:31;99457.47;;;9.09;nan
52719;BME280;38616;42.140;24.760;2023-11-21T07:01:57;99459.41;;;8.72;nan
52719;BME280;38616;42.140;24.760;2023-11-21T07:04:23;99456.97;;;8.86;nan
52719;BME280;38616;42.140;24.760;2023-11-21T07:06:50;99465.38;;;8.59;nan
52719;BME280;38616;42.140;24.760;2023-11-21T07:09:16;99475.09;;;8.86;nan
52719;BME280;38616;42.140;24.760;2023-11-21T07:11:41;99461.78;;;8.48;nan
52719;BME280;38616;42.140;24.760;2023-11-21T07:14:07;99478.91;;;8.49;nan
52719;BME280;38616;42.140;24.760;2023-11-21T07:16:37;99480.25;;;8.77;nan
52719;BME280;38616;42.140;24.760;2023-11-21T07:19:07;99479.44;;;9.02;nan
52719;BME280;38616;42.140;24.760;2023-11-21T07:21:33;99459.34;;;9.24;nan
52719;BME280;38616;42.140;24.760;2023-11-21T07:24:00;99473.44;;;9.11;nan
52719;BME280;38616;42.140;24.760;2023-11-21T07:26:26;99482.41;;;9.16;nan
52719;BME280;38616;42.140;24.760;2023-11-21T07:28:52;99466.63;;;9.29;nan
52719;BME280;38616;42.140;24.760;2023-11-21T07:31:18;99458.75;;;9.43;nan
52719;BME280;38616;42.140;24.760;2023-11-21T07:33:48;99455.19;;;9.53;nan
52719;BME280;38616;42.140;24.760;2023-11-21T07:38:39;99459.25;;;9.60;nan
52719;BME280;38616;42.140;24.760;2023-11-21T07:41:05;99461.78;;;9.91;nan
52719;BME280;38616;42.140;24.760;2023-11-21T07:43:33;99447.72;;;9.84;nan
52719;BME280;38616;42.140;24.760;2023-11-21T07:46:04;99456.72;;;9.80;nan
52719;BME280;38616;42.140;24.760;2023-11-21T07:48:33;99446.47;;;9.66;nan
52719;BME280;38616;42.140;24.760;2023-11-21T07:51:02;99468.31;;;9.90;nan
52719;BME280;38616;42.140;24.760;2023-11-21T07:53:31;99480.31;;;9.74;nan
52719;BME280;38616;42.140;24.760;2023-11-21T07:55:57;99477.03;;;9.82;nan
52719;BME280;38616;42.140;24.760;2023-11-21T07:58:23;99462.53;;;9.52;nan
52719;BME280;38616;42.140;24.760;2023-11-21T08:00:50;99471.59;;;9.82;nan
52719;BME280;38616;42.140;24.760;2023-11-21T08:03:16;99472.09;;;9.95;nan
52719;BME280;38616;42.140;24.760;2023-11-21T08:05:42;99463.38;;;10.03;nan
52719;BME280;38616;42.140;24.760;2023-11-21T08:08:08;99463.28;;;10.18;nan
52719;BME280;38616;42.140;24.760;2023-11-21T08:10:36;99459.63;;;10.39;nan
52719;BME280;38616;42.140;24.760;2023-11-21T08:13:03;99470.00;;;10.26;nan
52719;BME280;38616;42.140;24.760;2023-11-21T08:15:29;99463.19;;;10.34;nan
52719;BME280;38616;42.140;24.760;2023-11-21T08:17:57;99448.78;;;10.33;nan
52719;BME280;38616;42.140;24.760;2023-11-21T08:20:22;99453.50;;;10.23;nan
52719;BME280;38616;42.140;24.760;2023-11-21T08:22:48;99462.63;;;10.37;nan
52719;BME280;38616;42.140;24.760;2023-11-21T08:27:39;99459.63;;;10.39;nan
52719;BME280;38616;42.140;24.760;2023-11-21T08:30:07;99473.28;;;10.23;nan
52719;BME280;38616;42.140;24.760;2023-11-21T08:32:33;99459.88;;;10.47;nan
52719;BME280;38616;42.140;24.760;2023-11-21T08:35:00;99458.00;;;10.77;nan
52719;BME280;38616;42.140;24.760;2023-11-21T08:37:26;99449.44;;;10.94;nan
52719;BME280;38616;42.140;24.760;2023-11-21T08:39:52;99442.44;;;11.13;nan
52719;BME280;38616;42.140;24.760;2023-11-21T08:42:19;99440.16;;;11.25;nan
52719;BME280;38616;42.140;24.760;2023-11-21T08:44:44;99440.63;;;11.32;nan
52719;BME280;38616;42.140;24.760;2023-11-21T08:47:11;99435.50;;;11.26;nan
52719;BME280;38616;42.140;24.760;2023-11-21T08:49:36;99433.25;;;11.33;nan
52719;BME280;38616;42.140;24.760;2023-11-21T08:52:03;99425.91;;;11.58;nan
52719;BME280;38616;42.140;24.760;2023-11-21T08:54:30;99426.16;;;11.80;nan
52719;BME280;38616;42.140;24.760;2023-11-21T08:56:56;99411.66;;;11.66;nan
52719;BME280;38616;42.140;24.760;2023-11-21T08:59:24;99415.69;;;11.68;nan
52719;BME280;38616;42.140;24.760;2023-11-21T09:01:49;99404.22;;;11.72;nan
52719;BME280;38616;42.140;24.760;2023-11-21T09:04:15;99397.69;;;11.73;nan
52719;BME280;38616;42.140;24.760;2023-11-21T09:06:40;99399.69;;;11.86;nan
52719;BME280;38616;42.140;24.760;2023-11-21T09:09:06;99403.75;;;12.08;nan
52719;BME280;38616;42.140;24.760;2023-11-21T09:11:33;99399.63;;;12.10;nan
52719;BME280;38616;42.140;24.760;2023-11-21T09:14:04;99394.84;;;12.21;nan
52719;BME280;38616;42.140;24.760;2023-11-21T09:16:31;99384.91;;;12.31;nan
52719;BME280;38616;42.140;24.760;2023-11-21T09:18:57;99380.25;;;11.74;nan
52719;BME280;38616;42.140;24.760;2023-11-21T09:21:22;99387.91;;;11.91;nan
52719;BME280;38616;42.140;24.760;2023-11-21T09:23:49;99381.66;;;12.09;nan
52719;BME280;38616;42.140;24.760;2023-11-21T09:26:15;99374.28;;;12.29;nan
52719;BME280;38616;42.140;24.760;2023-11-21T09:28:43;99371.31;;;12.45;nan
52719;BME280;38616;42.140;24.760;2023-11-21T09:31:11;99360.34;;;12.64;nan
52719;BME280;38616;42.140;24.760;2023-11-21T09:33:37;99365.56;;;12.46;nan
52719;BME280;38616;42.140;24.760;2023-11-21T09:36:04;99362.56;;;12.62;nan
52719;BME280;38616;42.140;24.760;2023-11-21T09:38:30;99359.84;;;12.62;nan
52719;BME280;38616;42.140;24.760;2023-11-21T09:40:56;99358.66;;;12.68;nan
52719;BME280;38616;42.140;24.760;2023-11-21T09:43:24;99350.19;;;12.97;nan
52719;BME280;38616;42.140;24.760;2023-11-21T09:45:59;99348.38;;;13.07;nan
52719;BME280;38616;42.140;24.760;2023-11-21T09:48:26;99342.75;;;13.03;nan
52719;BME280;38616;42.140;24.760;2023-11-21T09:55:53;99335.47;;;12.84;nan
52719;BME280;38616;42.140;24.760;2023-11-21T09:58:20;99342.63;;;12.80;nan
52719;BME280;38616;42.140;24.760;2023-11-21T10:00:48;99329.00;;;12.80;nan
52719;BME280;38616;42.140;24.760;2023-11-21T10:03:14;99320.31;;;13.06;nan
52719;BME280;38616;42.140;24.760;2023-11-21T10:05:41;99322.22;;;13.20;nan
52719;BME280;38616;42.140;24.760;2023-11-21T10:08:09;99315.78;;;13.15;nan
52719;BME280;38616;42.140;24.760;2023-11-21T10:10:38;99300.09;;;13.21;nan
52719;BME280;38616;42.140;24.760;2023-11-21T10:13:11;99288.88;;;13.09;nan
52719;BME280;38616;42.140;24.760;2023-11-21T10:15:37;99295.03;;;13.28;nan
52719;BME280;38616;42.140;24.760;2023-11-21T10:18:04;99281.06;;;13.30;nan
52719;BME280;38616;42.140;24.760;2023-11-21T10:20:34;99272.63;;;13.18;nan
52719;BME280;38616;42.140;24.760;2023-11-21T10:23:00;99279.09;;;13.22;nan
52719;BME280;38616;42.140;24.760;2023-11-21T10:25:30;99278.03;;;13.45;nan
52719;BME280;38616;42.140;24.760;2023-11-21T10:28:01;99274.94;;;13.24;nan
52719;BME280;38616;42.140;24.760;2023-11-21T10:30:33;99277.19;;;13.08;nan
52719;BME280;38616;42.140;24.760;2023-11-21T10:33:06;99270.63;;;13.09;nan
52719;BME280;38616;42.140;24.760;2023-11-21T10:35:48;99272.03;;;13.21;nan
52719;BME280;38616;42.140;24.760;2023-11-21T10:38:19;99269.38;;;13.29;nan
52719;BME280;38616;42.140;24.760;2023-11-21T10:40:50;99266.13;;;13.27;nan
52719;BME280;38616;42.140;24.760;2023-11-21T10:43:16;99254.56;;;13.58;nan
52719;BME280;38616;42.140;24.760;2023-11-21T10:45:42;99266.63;;;13.43;nan
52719;BME280;38616;42.140;24.760;2023-11-21T10:48:15;99261.25;;;13.38;nan
52719;BME280;38616;42.140;24.760;2023-11-21T10:50:41;99254.81;;;13.48;nan
52719;BME280;38616;42.140;24.760;2023-11-21T10:53:06;99251.84;;;13.58;nan
52719;BME280;38616;42.140;24.760;2023-11-21T10:55:33;99250.97;;;13.49;nan
52719;BME280;38616;42.140;24.760;2023-11-21T10:58:02;99244.50;;;13.45;nan
52719;BME280;38616;42.140;24.760;2023-11-21T11:00:28;99246.06;;;13.60;nan
52719;BME280;38616;42.140;24.760;2023-11-21T11:02:55;99251.28;;;13.70;nan
52719;BME280;38616;42.140;24.760;2023-11-21T11:05:22;99247.06;;;13.87;nan
52719;BME280;38616;42.140;24.760;2023-11-21T11:07:51;99239.50;;;14.07;nan
52719;BME280;38616;42.140;24.760;2023-11-21T11:10:20;99227.44;;;14.08;nan
52719;BME280;38616;42.140;24.760;2023-11-21T11:12:48;99216.78;;;14.29;nan
52719;BME280;38616;42.140;24.760;2023-11-21T11:15:15;99224.66;;;14.30;nan
52719;BME280;38616;42.140;24.760;2023-11-21T11:17:41;99211.81;;;13.77;nan
52719;BME280;38616;42.140;24.760;2023-11-21T11:20:08;99206.63;;;13.66;nan
52719;BME280;38616;42.140;24.760;2023-11-21T11:22:55;99209.13;;;13.40;nan
52719;BME280;38616;42.140;24.760;2023-11-21T11:25:35;99193.47;;;13.45;nan
52719;BME280;38616;42.140;24.760;2023-11-21T11:28:08;99190.38;;;13.61;nan
52719;BME280;38616;42.140;24.760;2023-11-21T11:33:39;99167.75;;;13.92;nan
52719;BME280;38616;42.140;24.760;2023-11-21T11:36:31;99155.16;;;14.14;nan
52719;BME280;38616;42.140;24.760;2023-11-21T11:38:59;99137.19;;;14.13;nan
52719;BME280;38616;42.140;24.760;2023-11-21T11:41:29;99131.91;;;14.25;nan
52719;BME280;38616;42.140;24.760;2023-11-21T11:43:58;99116.75;;;14.10;nan
52719;BME280;38616;42.140;24.760;2023-11-21T11:46:41;99111.44;;;14.05;nan
52719;BME280;38616;42.140;24.760;2023-11-21T11:49:07;99113.66;;;14.03;nan
52719;BME280;38616;42.140;24.760;2023-11-21T11:51:33;99113.66;;;14.03;nan
52719;BME280;38616;42.140;24.760;2023-11-21T11:54:01;99118.22;;;14.16;nan
52719;BME280;38616;42.140;24.760;2023-11-21T11:56:33;99109.03;;;14.03;nan
52719;BME280;38616;42.140;24.760;2023-11-21T11:59:04;99106.56;;;13.93;nan
52719;BME280;38616;42.140;24.760;2023-11-21T12:01:33;99096.13;;;13.95;nan
52719;BME280;38616;42.140;24.760;2023-11-21T12:06:51;99097.47;;;14.07;nan
52719;BME280;38616;42.140;24.760;2023-11-21T12:09:22;99095.81;;;13.97;nan
52719;BME280;38616;42.140;24.760;2023-11-21T12:11:49;99106.38;;;13.89;nan
52719;BME280;38616;42.140;24.760;2023-11-21T12:14:16;99099.81;;;13.91;nan
52719;BME280;38616;42.140;24.760;2023-11-21T12:19:12;99101.50;;;13.78;nan
52719;BME280;38616;42.140;24.760;2023-11-21T12:21:38;99086.28;;;13.85;nan
52719;BME280;38616;42.140;24.760;2023-11-21T12:24:06;99089.78;;;13.77;nan
52719;BME280;38616;42.140;24.760;2023-11-21T12:26:34;99091.09;;;13.80;nan
52719;BME280;38616;42.140;24.760;2023-11-21T12:29:01;99101.78;;;13.67;nan
52719;BME280;38616;42.140;24.760;2023-11-21T12:31:29;99114.56;;;13.58;nan
52719;BME280;38616;42.140;24.760;2023-11-21T12:33:54;99112.69;;;13.67;nan
52719;BME280;38616;42.140;24.760;2023-11-21T12:36:21;99120.25;;;13.70;nan
52719;BME280;38616;42.140;24.760;2023-11-21T12:38:47;99112.84;;;13.62;nan
52719;BME280;38616;42.140;24.760;2023-11-21T12:41:12;99105.69;;;13.29;nan
52719;BME280;38616;42.140;24.760;2023-11-21T12:43:38;99102.13;;;13.43;nan
52719;BME280;38616;42.140;24.760;2023-11-21T12:46:11;99099.56;;;13.47;nan
52719;BME280;38616;42.140;24.760;2023-11-21T12:48:41;99102.28;;;13.69;nan
52719;BME280;38616;42.140;24.760;2023-11-21T12:51:10;99091.72;;;13.77;nan
52719;BME280;38616;42.140;24.760;2023-11-21T12:53:44;99091.59;;;13.82;nan
52719;BME280;38616;42.140;24.760;2023-11-21T12:56:11;99090.63;;;13.86;nan
52719;BME280;38616;42.140;24.760;2023-11-21T12:58:44;99072.84;;;13.98;nan
52719;BME280;38616;42.140;24.760;2023-11-21T13:01:13;99067.25;;;14.03;nan
52719;BME280;38616;42.140;24.760;2023-11-21T13:03:43;99074.50;;;14.08;nan
52719;BME280;38616;42.140;24.760;2023-11-21T13:06:10;99072.84;;;13.98;nan
52719;BME280;38616;42.140;24.760;2023-11-21T13:08:37;99080.94;;;14.12;nan
52719;BME280;38616;42.140;24.760;2023-11-21T13:11:04;99082.09;;;14.28;nan
52719;BME280;38616;42.140;24.760;2023-11-21T13:13:32;99080.88;;;13.94;nan
52719;BME280;38616;42.140;24.760;2023-11-21T13:16:02;99080.44;;;13.69;nan
52719;BME280;38616;42.140;24.760;2023-11-21T13:18:31;99068.53;;;13.65;nan
52719;BME280;38616;42.140;24.760;2023-11-21T13:21:02;99072.84;;;13.57;nan
52719;BME280;38616;42.140;24.760;2023-11-21T13:23:36;99083.53;;;13.77;nan
52719;BME280;38616;42.140;24.760;2023-11-21T13:26:03;99078.28;;;13.89;nan
52719;BME280;38616;42.140;24.760;2023-11-21T13:28:29;99083.16;;;13.69;nan
52719;BME280;38616;42.140;24.760;2023-11-21T13:31:02;99089.28;;;13.43;nan
52719;BME280;38616;42.140;24.760;2023-11-21T13:33:34;99087.47;;;13.62;nan